Time;durP1;ratioP1;P1;durP2;ratioP2;P2;SDS_P1;SDS_P2;PMS_P1;PMS_P2;Temp;Humidity;BMP_temperature;BMP_pressure;BME280_temperature;BME280_humidity;BME280_pressure;Samples;Min_cycle;Max_cycle;Signal;HPM_P1;HPM_P2
2022/01/04 00:02:21;;;;;;;1.90;1.70;;;6.50;99.90;;;;;;5051801;28;20206;-71
2022/01/04 00:04:46;;;;;;;0.80;0.80;;;6.50;99.90;;;;;;5053280;28;20414;-70
2022/01/04 00:07:12;;;;;;;0.70;0.70;;;6.60;99.90;;;;;;5053620;28;20178;-71
2022/01/04 00:09:41;;;;;;;0.70;0.70;;;6.60;99.90;;;;;;5053376;28;20193;-71
2022/01/04 00:14:54;;;;;;;0.80;0.77;;;6.70;99.90;;;;;;5053490;28;20408;-71
2022/01/04 00:17:20;;;;;;;1.13;1.03;;;6.70;99.90;;;;;;5053456;28;20405;-72
2022/01/04 00:19:46;;;;;;;1.70;1.60;;;6.70;99.90;;;;;;5053001;28;20429;-71
2022/01/04 00:22:11;;;;;;;7.83;1.27;;;6.80;99.90;;;;;;5053178;28;20231;-71
2022/01/04 00:24:37;;;;;;;0.97;0.80;;;6.70;99.90;;;;;;5052869;28;20437;-71
2022/01/04 00:27:03;;;;;;;0.93;0.87;;;6.80;99.90;;;;;;5053094;28;20707;-71
2022/01/04 00:29:28;;;;;;;1.30;0.80;;;6.80;99.90;;;;;;5052802;28;20187;-71
2022/01/04 00:31:54;;;;;;;1.30;1.20;;;6.90;99.90;;;;;;5053360;28;20171;-71
2022/01/04 00:34:19;;;;;;;1.83;1.30;;;6.90;99.90;;;;;;5034579;28;20239;-71
2022/01/04 00:36:45;;;;;;;1.90;1.80;;;7.00;99.90;;;;;;5032777;28;20191;-71
2022/01/04 00:39:10;;;;;;;1.00;0.90;;;6.90;99.90;;;;;;5032747;28;20214;-71
2022/01/04 00:41:36;;;;;;;2.90;2.70;;;6.80;99.90;;;;;;5032639;28;20191;-71
2022/01/04 00:44:01;;;;;;;0.90;0.90;;;6.70;99.90;;;;;;5032331;28;20178;-72
2022/01/04 00:46:27;;;;;;;1.13;0.80;;;6.70;99.90;;;;;;5032685;28;20228;-71
2022/01/04 00:49:11;;;;;;;2.80;1.20;;;6.70;99.90;;;;;;5032615;28;20661;-70
2022/01/04 00:51:42;;;;;;;0.87;0.87;;;6.70;99.90;;;;;;5032529;28;20224;-70
2022/01/04 00:54:08;;;;;;;1.20;1.10;;;6.70;99.90;;;;;;5032529;28;20472;-70
2022/01/04 00:56:34;;;;;;;0.93;0.70;;;6.70;99.90;;;;;;5032304;28;20768;-70
2022/01/04 00:59:00;;;;;;;0.80;0.80;;;6.70;99.90;;;;;;5032201;28;20911;-69
2022/01/04 01:01:26;;;;;;;1.17;1.07;;;6.60;99.90;;;;;;5028524;28;20545;-69
2022/01/04 01:03:51;;;;;;;1.27;1.00;;;6.60;99.90;;;;;;5012330;28;20180;-70
2022/01/04 01:06:17;;;;;;;1.00;1.00;;;6.60;99.90;;;;;;5011084;28;20415;-70
2022/01/04 01:08:43;;;;;;;1.83;0.80;;;6.60;99.90;;;;;;5012213;28;20751;-70
2022/01/04 01:11:09;;;;;;;1.40;0.87;;;6.60;99.90;;;;;;5013104;28;20538;-70
2022/01/04 01:13:36;;;;;;;1.23;0.90;;;6.60;99.90;;;;;;5014479;28;20438;-70
2022/01/04 01:16:02;;;;;;;0.80;0.63;;;6.60;99.90;;;;;;5014862;28;20439;-71
2022/01/04 01:18:28;;;;;;;4.33;1.43;;;6.50;99.90;;;;;;5014632;28;20423;-70
2022/01/04 01:20:54;;;;;;;1.60;1.47;;;6.50;99.90;;;;;;5013494;28;20188;-70
2022/01/04 01:23:22;;;;;;;3.07;1.70;;;6.50;99.90;;;;;;5012372;28;20168;-70
2022/01/04 01:25:50;;;;;;;2.70;0.67;;;6.60;99.90;;;;;;5012401;28;20435;-70
2022/01/04 01:28:17;;;;;;;1.00;0.90;;;6.60;99.90;;;;;;5012017;28;20454;-70
2022/01/04 01:30:43;;;;;;;0.90;0.90;;;6.60;99.90;;;;;;5011966;28;20411;-71
2022/01/04 01:33:10;;;;;;;2.53;1.30;;;6.60;99.90;;;;;;5020070;28;20410;-71
2022/01/04 01:35:37;;;;;;;1.10;1.00;;;6.60;99.90;;;;;;5031276;28;20482;-70
2022/01/04 01:38:04;;;;;;;0.70;0.70;;;6.60;99.90;;;;;;5031561;28;20540;-70
2022/01/04 01:40:29;;;;;;;1.20;0.93;;;6.60;99.90;;;;;;5031476;28;20553;-70
2022/01/04 01:42:56;;;;;;;2.77;0.70;;;6.60;99.90;;;;;;5031296;28;20489;-70
2022/01/04 01:45:23;;;;;;;1.00;0.90;;;6.60;99.90;;;;;;5031224;28;20175;-70
2022/01/04 01:47:49;;;;;;;1.27;1.10;;;6.60;99.90;;;;;;5031608;28;20406;-70
2022/01/04 01:50:16;;;;;;;0.97;0.70;;;6.60;99.90;;;;;;5045889;28;20475;-70
2022/01/04 01:52:44;;;;;;;3.13;1.37;;;6.60;99.90;;;;;;5051593;28;20416;-70
2022/01/04 01:55:10;;;;;;;2.40;0.90;;;6.60;99.90;;;;;;5050806;28;20911;-70
2022/01/04 01:57:36;;;;;;;1.10;1.00;;;6.60;99.90;;;;;;5050555;28;20782;-69
2022/01/04 02:00:04;;;;;;;2.67;1.37;;;6.60;99.90;;;;;;5050966;28;20425;-70
2022/01/04 02:02:29;;;;;;;0.87;0.83;;;6.60;99.90;;;;;;5051125;28;20834;-69
2022/01/04 02:04:55;;;;;;;0.70;0.70;;;6.60;99.90;;;;;;5051183;28;20425;-70
2022/01/04 02:07:22;;;;;;;1.33;0.80;;;6.50;99.90;;;;;;5051212;28;20652;-70
2022/01/04 02:09:57;;;;;;;1.27;0.70;;;6.50;99.90;;;;;;5051195;28;20571;-70
2022/01/04 02:12:23;;;;;;;0.93;0.80;;;6.50;99.90;;;;;;5051025;28;20413;-70
2022/01/04 02:14:51;;;;;;;0.60;0.60;;;6.60;99.90;;;;;;5051436;28;20421;-70
2022/01/04 02:17:17;;;;;;;0.80;0.80;;;6.60;99.90;;;;;;5051124;28;20179;-69
2022/01/04 02:19:42;;;;;;;0.80;0.60;;;6.50;99.90;;;;;;5051299;28;20962;-70
2022/01/04 02:22:08;;;;;;;0.83;0.80;;;6.50;99.90;;;;;;5034273;28;20273;-70
2022/01/04 02:24:33;;;;;;;0.70;0.70;;;6.50;99.90;;;;;;5031285;28;20178;-69
2022/01/04 02:27:00;;;;;;;1.20;1.10;;;6.50;99.90;;;;;;5030985;28;20210;-70
2022/01/04 02:29:27;;;;;;;1.43;0.73;;;6.50;99.90;;;;;;5031272;28;20194;-70
2022/01/04 02:31:53;;;;;;;0.80;0.80;;;6.50;99.90;;;;;;5031845;28;20983;-70
2022/01/04 02:34:18;;;;;;;1.43;1.30;;;6.50;99.90;;;;;;5015569;28;20498;-71
2022/01/04 02:36:44;;;;;;;0.90;0.80;;;6.50;99.90;;;;;;5011791;28;20487;-70
2022/01/04 02:39:10;;;;;;;0.80;0.73;;;6.50;99.90;;;;;;5011520;28;20204;-69
2022/01/04 02:41:35;;;;;;;1.93;0.70;;;6.50;99.90;;;;;;5011376;28;20208;-70
2022/01/04 02:44:01;;;;;;;0.77;0.70;;;6.50;99.90;;;;;;5011603;28;20172;-70
2022/01/04 02:46:26;;;;;;;0.80;0.80;;;6.50;99.90;;;;;;5010206;28;20307;-70
2022/01/04 02:48:51;;;;;;;1.07;1.00;;;6.50;99.90;;;;;;5017039;28;20245;-70
2022/01/04 02:51:18;;;;;;;0.80;0.80;;;6.50;99.90;;;;;;5051181;28;20262;-70
2022/01/04 02:53:44;;;;;;;1.00;0.80;;;6.50;99.90;;;;;;5051234;28;20181;-70
2022/01/04 02:56:11;;;;;;;0.80;0.80;;;6.50;99.90;;;;;;5050854;28;20402;-70
2022/01/04 02:58:37;;;;;;;0.70;0.70;;;6.40;99.90;;;;;;5051262;28;20198;-70
2022/01/04 03:01:03;;;;;;;2.40;1.60;;;6.40;99.90;;;;;;5050987;28;20947;-70
2022/01/04 03:03:30;;;;;;;0.60;0.60;;;6.40;99.90;;;;;;5049950;28;20194;-70
2022/01/04 03:05:56;;;;;;;0.70;0.60;;;6.40;99.90;;;;;;5050989;28;20504;-70
2022/01/04 03:08:22;;;;;;;1.90;0.70;;;6.40;99.90;;;;;;5053704;28;20842;-69
2022/01/04 03:10:47;;;;;;;1.13;0.90;;;6.40;99.90;;;;;;5054627;28;20510;-71
2022/01/04 03:13:16;;;;;;;0.80;0.80;;;6.40;99.90;;;;;;5056432;28;20406;-69
2022/01/04 03:15:42;;;;;;;0.87;0.87;;;6.50;99.90;;;;;;5061144;28;20228;-70
2022/01/04 03:18:07;;;;;;;3.43;1.03;;;6.50;99.90;;;;;;5062336;28;20433;-69
2022/01/04 03:20:33;;;;;;;1.37;0.80;;;6.50;99.90;;;;;;5062882;28;20401;-69
2022/01/04 03:22:58;;;;;;;0.63;0.63;;;6.50;99.90;;;;;;5060801;28;20175;-70
2022/01/04 03:25:24;;;;;;;1.10;1.00;;;6.50;99.90;;;;;;5055054;28;20168;-69
2022/01/04 03:27:49;;;;;;;0.70;0.60;;;6.50;99.90;;;;;;5036539;28;20168;-69
2022/01/04 03:30:15;;;;;;;0.70;0.70;;;6.50;99.90;;;;;;5039371;28;20175;-70
2022/01/04 03:32:40;;;;;;;0.80;0.80;;;6.50;99.90;;;;;;5039038;28;20187;-70
2022/01/04 03:35:07;;;;;;;0.70;0.70;;;6.50;99.90;;;;;;5034336;28;20164;-70
2022/01/04 03:37:32;;;;;;;0.60;0.60;;;6.50;99.90;;;;;;5032580;28;20626;-69
2022/01/04 03:39:58;;;;;;;2.83;0.97;;;6.50;99.90;;;;;;5033928;28;20448;-71
2022/01/04 03:42:23;;;;;;;0.90;0.83;;;6.50;99.90;;;;;;5032705;28;20657;-69
2022/01/04 03:44:48;;;;;;;1.07;0.80;;;6.50;99.90;;;;;;5033897;28;20167;-71
2022/01/04 03:47:14;;;;;;;0.90;0.70;;;6.50;99.90;;;;;;5034007;28;20191;-71
2022/01/04 03:49:39;;;;;;;1.93;0.90;;;6.50;99.90;;;;;;5043113;28;20245;-71
2022/01/04 03:52:05;;;;;;;1.50;0.80;;;6.60;99.90;;;;;;5053554;28;20662;-71
2022/01/04 03:54:30;;;;;;;0.97;0.80;;;6.60;99.90;;;;;;5053239;28;20179;-71
2022/01/04 03:56:56;;;;;;;0.70;0.70;;;6.50;99.90;;;;;;5053568;28;20179;-71
2022/01/04 03:59:21;;;;;;;1.03;0.93;;;6.60;99.90;;;;;;5052186;28;20191;-70
2022/01/04 04:01:48;;;;;;;0.80;0.70;;;6.60;99.90;;;;;;5045018;28;20191;-71
2022/01/04 04:04:13;;;;;;;0.70;0.70;;;6.70;99.90;;;;;;5033202;28;20223;-71
2022/01/04 04:06:39;;;;;;;1.40;0.80;;;6.70;99.90;;;;;;5033324;28;20483;-71
2022/01/04 04:09:05;;;;;;;0.73;0.70;;;6.70;99.90;;;;;;5033196;28;20200;-71
2022/01/04 04:11:30;;;;;;;1.13;0.93;;;6.70;99.90;;;;;;5033131;28;20167;-71
2022/01/04 04:13:56;;;;;;;1.13;1.03;;;6.70;99.90;;;;;;5033461;28;20171;-69
2022/01/04 04:16:21;;;;;;;0.80;0.80;;;6.70;99.90;;;;;;5032923;28;20175;-69
2022/01/04 04:18:47;;;;;;;0.67;0.67;;;6.60;99.90;;;;;;5032378;28;20192;-70
2022/01/04 04:21:12;;;;;;;1.20;1.10;;;6.70;99.90;;;;;;5032871;28;20685;-70
2022/01/04 04:23:38;;;;;;;2.10;1.23;;;6.60;99.90;;;;;;5032779;28;20202;-70
2022/01/04 04:26:04;;;;;;;1.17;0.83;;;6.60;99.90;;;;;;5032996;28;20175;-70
2022/01/04 04:28:29;;;;;;;1.43;1.23;;;6.60;99.90;;;;;;5032988;28;20258;-70
2022/01/04 04:30:56;;;;;;;1.23;0.80;;;6.60;99.90;;;;;;5033235;28;20437;-70
2022/01/04 04:33:22;;;;;;;1.27;0.90;;;6.60;99.90;;;;;;5026711;28;20231;-70
2022/01/04 04:35:47;;;;;;;0.70;0.70;;;6.60;99.90;;;;;;5028605;28;20435;-70
2022/01/04 04:38:13;;;;;;;0.80;0.80;;;6.60;99.90;;;;;;5012871;28;20551;-70
2022/01/04 04:40:38;;;;;;;1.23;0.83;;;6.70;99.90;;;;;;5013481;28;20542;-70
2022/01/04 04:43:04;;;;;;;0.97;0.80;;;6.60;99.90;;;;;;5012798;28;20172;-70
2022/01/04 04:45:29;;;;;;;3.73;1.50;;;6.60;99.90;;;;;;5012887;28;20502;-70
2022/01/04 04:47:55;;;;;;;1.17;1.07;;;6.60;99.90;;;;;;5011706;28;20179;-70
2022/01/04 04:50:20;;;;;;;1.00;0.90;;;6.60;99.90;;;;;;5042524;28;20644;-70
2022/01/04 04:52:46;;;;;;;1.43;1.10;;;6.60;99.90;;;;;;5052295;28;20178;-70
2022/01/04 04:55:11;;;;;;;1.00;0.90;;;6.60;99.90;;;;;;5052159;28;20167;-70
2022/01/04 04:57:38;;;;;;;0.90;0.90;;;6.60;99.90;;;;;;5051165;28;20570;-70
2022/01/04 05:00:05;;;;;;;1.00;0.70;;;6.60;99.90;;;;;;5038372;28;20353;-70
2022/01/04 05:02:31;;;;;;;2.17;1.40;;;6.50;99.90;;;;;;5030489;28;20450;-70
2022/01/04 05:04:56;;;;;;;0.80;0.80;;;6.50;99.90;;;;;;5031942;28;20518;-70
2022/01/04 05:07:22;;;;;;;4.63;1.07;;;6.50;99.90;;;;;;5032957;28;20927;-70
2022/01/04 05:09:47;;;;;;;0.80;0.80;;;6.50;99.90;;;;;;5035780;28;20637;-70
2022/01/04 05:12:12;;;;;;;1.00;0.80;;;6.50;99.90;;;;;;5036719;28;20175;-70
2022/01/04 05:14:39;;;;;;;1.27;1.00;;;6.40;99.90;;;;;;5036466;28;20240;-71
2022/01/04 05:17:04;;;;;;;1.30;0.97;;;6.40;99.90;;;;;;5032433;28;20175;-70
2022/01/04 05:19:30;;;;;;;1.23;1.10;;;6.50;99.90;;;;;;5032189;28;20438;-70
2022/01/04 05:21:55;;;;;;;1.07;0.70;;;6.50;99.90;;;;;;5032031;28;20260;-70
2022/01/04 05:24:21;;;;;;;1.73;1.10;;;6.50;99.90;;;;;;5032337;28;20653;-70
2022/01/04 05:26:46;;;;;;;1.37;1.27;;;6.50;99.90;;;;;;5032507;28;20174;-71
2022/01/04 05:29:12;;;;;;;0.80;0.80;;;6.40;99.90;;;;;;5035787;28;20552;-70
2022/01/04 05:31:37;;;;;;;1.07;0.93;;;6.40;99.90;;;;;;5036676;28;20199;-70
2022/01/04 05:34:03;;;;;;;1.00;0.90;;;6.50;99.90;;;;;;5036495;28;20295;-71
2022/01/04 05:36:28;;;;;;;1.23;1.00;;;6.40;99.90;;;;;;5035734;28;20180;-70
2022/01/04 05:38:54;;;;;;;0.90;0.90;;;6.40;99.90;;;;;;5031526;28;20207;-70
2022/01/04 05:41:19;;;;;;;1.40;1.20;;;6.50;99.90;;;;;;5032056;28;20607;-70
2022/01/04 05:43:46;;;;;;;0.80;0.80;;;6.50;99.90;;;;;;5032225;28;20175;-70
2022/01/04 05:46:11;;;;;;;1.10;0.93;;;6.50;99.90;;;;;;5031910;28;20251;-70
2022/01/04 05:48:37;;;;;;;1.03;0.87;;;6.40;99.90;;;;;;5032283;28;20508;-70
2022/01/04 05:51:02;;;;;;;1.27;1.17;;;6.40;99.90;;;;;;5051254;28;20186;-69
2022/01/04 05:53:29;;;;;;;1.13;1.03;;;6.50;99.90;;;;;;5051378;28;20582;-69
2022/01/04 05:55:55;;;;;;;1.73;1.10;;;6.50;99.90;;;;;;5051505;28;20228;-70
2022/01/04 05:58:20;;;;;;;1.17;1.07;;;6.50;99.90;;;;;;5051425;28;20884;-70
2022/01/04 06:00:46;;;;;;;1.50;1.40;;;6.50;99.90;;;;;;5050283;28;20163;-71
2022/01/04 06:03:11;;;;;;;2.73;1.57;;;6.50;99.90;;;;;;5031495;28;20661;-71
2022/01/04 06:05:37;;;;;;;3.10;1.00;;;6.50;99.90;;;;;;5031391;28;20566;-71
2022/01/04 06:08:03;;;;;;;2.23;1.10;;;6.60;99.90;;;;;;5032024;28;20211;-71
2022/01/04 06:10:35;;;;;;;1.00;0.90;;;6.50;99.90;;;;;;5031891;28;20221;-71
2022/01/04 06:15:26;;;;;;;1.90;1.20;;;6.60;99.90;;;;;;5031613;28;20494;-70
2022/01/04 06:17:52;;;;;;;2.20;1.40;;;6.60;99.90;;;;;;5031637;28;20163;-70
2022/01/04 06:20:21;;;;;;;1.60;1.50;;;6.60;99.90;;;;;;5031937;28;20271;-69
2022/01/04 06:22:47;;;;;;;1.00;0.90;;;6.60;99.90;;;;;;5031168;28;20187;-70
2022/01/04 06:25:14;;;;;;;1.63;1.53;;;6.60;99.90;;;;;;5031336;28;20402;-70
2022/01/04 06:27:44;;;;;;;1.20;1.00;;;6.60;99.90;;;;;;5031400;28;20183;-69
2022/01/04 06:30:13;;;;;;;1.30;1.20;;;6.60;99.90;;;;;;5031358;28;20419;-69
2022/01/04 06:32:41;;;;;;;1.13;1.03;;;6.70;99.90;;;;;;5030973;28;20917;-69
2022/01/04 06:35:06;;;;;;;3.03;1.27;;;6.60;99.90;;;;;;5031145;28;20406;-69
2022/01/04 06:37:32;;;;;;;5.07;1.20;;;6.60;99.90;;;;;;5029782;28;20464;-70
2022/01/04 06:39:58;;;;;;;1.00;0.77;;;6.60;99.90;;;;;;5031549;28;20811;-70
2022/01/04 06:42:23;;;;;;;1.63;1.50;;;6.60;99.90;;;;;;5032537;28;20692;-70
2022/01/04 06:44:49;;;;;;;1.50;1.40;;;6.60;99.90;;;;;;5034918;28;20694;-69
2022/01/04 06:47:14;;;;;;;2.80;1.87;;;6.60;99.90;;;;;;5035077;28;20225;-69
2022/01/04 06:49:40;;;;;;;1.00;1.00;;;6.60;99.90;;;;;;5044282;28;20187;-71
2022/01/04 06:52:06;;;;;;;1.33;1.20;;;6.60;99.90;;;;;;5054774;28;20193;-71
2022/01/04 06:54:31;;;;;;;2.27;1.57;;;6.70;99.90;;;;;;5054718;28;20198;-71
2022/01/04 06:56:57;;;;;;;1.67;1.43;;;6.70;99.90;;;;;;5055181;28;20175;-70
2022/01/04 06:59:22;;;;;;;2.90;1.37;;;6.70;99.90;;;;;;5054395;28;20711;-70
2022/01/04 07:01:48;;;;;;;2.23;1.60;;;6.80;99.90;;;;;;5046402;28;20220;-70
2022/01/04 07:04:14;;;;;;;4.57;2.47;;;6.80;99.90;;;;;;5026363;28;20222;-70
2022/01/04 07:06:40;;;;;;;4.53;2.73;;;6.90;99.90;;;;;;5015068;28;20396;-70
2022/01/04 07:09:07;;;;;;;3.10;2.13;;;6.90;99.90;;;;;;5015248;28;20189;-70
2022/01/04 07:11:33;;;;;;;1.97;1.80;;;6.90;99.90;;;;;;5015229;28;20507;-70
2022/01/04 07:13:59;;;;;;;3.73;2.10;;;6.80;99.90;;;;;;5015061;28;20427;-70
2022/01/04 07:16:25;;;;;;;3.17;2.87;;;6.80;99.90;;;;;;5014906;28;20945;-70
2022/01/04 07:18:50;;;;;;;3.83;1.97;;;6.90;99.90;;;;;;5015211;28;20435;-70
2022/01/04 07:21:16;;;;;;;1.70;1.60;;;6.90;99.90;;;;;;5030532;28;20200;-70
2022/01/04 07:23:43;;;;;;;3.90;3.50;;;6.90;99.90;;;;;;5014255;28;20666;-70
2022/01/04 07:26:11;;;;;;;1.50;1.40;;;7.00;99.90;;;;;;5015577;28;20395;-70
2022/01/04 07:28:40;;;;;;;2.97;2.20;;;7.00;99.90;;;;;;5017834;28;20442;-71
2022/01/04 07:31:05;;;;;;;2.00;1.80;;;7.10;99.90;;;;;;5024663;28;20403;-71
2022/01/04 07:33:31;;;;;;;1.70;1.20;;;7.10;99.90;;;;;;5041640;28;20932;-71
2022/01/04 07:35:56;;;;;;;1.60;1.50;;;7.10;99.90;;;;;;5041692;28;20168;-70
2022/01/04 07:38:22;;;;;;;2.07;1.87;;;7.10;99.90;;;;;;5040378;28;20207;-71
2022/01/04 07:40:47;;;;;;;5.67;2.17;;;7.20;99.90;;;;;;5040164;28;20197;-70
2022/01/04 07:43:14;;;;;;;2.00;1.80;;;7.20;99.90;;;;;;5039718;28;20194;-70
2022/01/04 07:45:39;;;;;;;1.43;1.30;;;7.20;99.90;;;;;;5032929;28;20169;-70
2022/01/04 07:48:06;;;;;;;4.90;1.77;;;7.20;99.90;;;;;;5014118;28;20812;-69
2022/01/04 07:50:32;;;;;;;3.93;2.40;;;7.20;99.90;;;;;;5047702;28;20236;-70
2022/01/04 07:52:57;;;;;;;5.70;3.30;;;7.30;99.90;;;;;;5018328;28;20420;-71
2022/01/04 07:55:23;;;;;;;3.23;2.93;;;7.30;99.90;;;;;;5026384;28;20191;-72
2022/01/04 07:57:48;;;;;;;6.60;2.87;;;7.30;99.90;;;;;;5034458;28;20187;-71
2022/01/04 08:00:15;;;;;;;1.97;1.73;;;7.30;99.90;;;;;;5033734;28;20175;-71
2022/01/04 08:02:44;;;;;;;2.10;1.97;;;7.30;99.90;;;;;;5033403;28;20205;-70
2022/01/04 08:05:10;;;;;;;2.40;1.67;;;7.30;99.90;;;;;;5028974;28;20778;-70
2022/01/04 08:07:37;;;;;;;1.63;1.33;;;7.30;99.90;;;;;;5032903;28;20426;-71
2022/01/04 08:10:04;;;;;;;2.43;1.70;;;7.30;99.90;;;;;;5033099;28;20447;-70
2022/01/04 08:12:30;;;;;;;1.83;1.73;;;7.30;99.90;;;;;;5033504;28;20946;-71
2022/01/04 08:14:55;;;;;;;1.60;1.50;;;7.30;99.90;;;;;;5033521;28;20461;-71
2022/01/04 08:17:22;;;;;;;1.63;1.53;;;7.40;99.90;;;;;;5033506;28;20650;-70
2022/01/04 08:19:47;;;;;;;2.10;1.90;;;7.40;99.90;;;;;;5033113;28;20231;-70
2022/01/04 08:22:13;;;;;;;1.47;1.37;;;7.40;99.90;;;;;;5033002;28;20984;-71
2022/01/04 08:24:38;;;;;;;1.53;1.43;;;7.40;99.90;;;;;;5033253;28;20206;-71
2022/01/04 08:27:04;;;;;;;1.67;1.40;;;7.50;99.90;;;;;;5032837;28;20168;-70
2022/01/04 08:29:31;;;;;;;1.53;1.40;;;7.50;99.90;;;;;;5032562;28;20227;-70
2022/01/04 08:31:58;;;;;;;2.20;1.57;;;7.50;99.90;;;;;;5032740;28;20170;-70
2022/01/04 08:34:23;;;;;;;3.37;1.60;;;7.50;99.90;;;;;;5032844;28;20890;-69
2022/01/04 08:36:49;;;;;;;3.80;1.80;;;7.60;99.90;;;;;;5032487;28;20522;-70
2022/01/04 08:39:14;;;;;;;1.70;1.47;;;7.60;99.90;;;;;;5032024;28;20686;-70
2022/01/04 08:41:45;;;;;;;3.43;1.60;;;7.60;99.90;;;;;;5032031;28;20289;-70
2022/01/04 08:44:11;;;;;;;1.73;1.37;;;7.70;99.90;;;;;;5032442;28;20605;-70
2022/01/04 08:46:38;;;;;;;2.07;1.57;;;7.70;99.90;;;;;;5032479;28;20447;-70
2022/01/04 08:49:08;;;;;;;1.20;1.10;;;7.70;99.90;;;;;;5032535;28;20912;-70
2022/01/04 08:51:35;;;;;;;1.80;1.60;;;7.70;99.90;;;;;;5033032;28;20450;-70
2022/01/04 08:54:00;;;;;;;1.70;1.37;;;7.70;99.90;;;;;;5024787;28;20413;-71
2022/01/04 08:56:26;;;;;;;5.47;2.63;;;7.70;99.90;;;;;;5032534;28;20436;-71
2022/01/04 08:58:52;;;;;;;4.60;1.73;;;7.70;99.90;;;;;;5029691;28;20278;-71
2022/01/04 09:01:18;;;;;;;4.00;2.23;;;7.70;99.90;;;;;;5031086;28;20204;-70
2022/01/04 09:03:44;;;;;;;4.13;1.90;;;7.70;99.90;;;;;;5034022;28;20414;-70
2022/01/04 09:06:10;;;;;;;4.67;2.63;;;7.80;99.90;;;;;;5034196;28;20290;-70
2022/01/04 09:08:36;;;;;;;2.40;1.97;;;7.80;99.90;;;;;;5036350;28;20188;-70
2022/01/04 09:11:02;;;;;;;3.10;2.40;;;7.80;99.90;;;;;;5033631;28;20833;-70
2022/01/04 09:13:34;;;;;;;3.30;2.10;;;7.90;99.90;;;;;;5030425;28;20450;-70
2022/01/04 09:18:45;;;;;;;2.13;1.47;;;7.90;99.90;;;;;;5031737;28;20505;-70
2022/01/04 09:21:20;;;;;;;2.77;2.20;;;7.90;99.90;;;;;;5025631;28;20195;-70
2022/01/04 09:23:48;;;;;;;3.07;2.40;;;7.90;99.90;;;;;;5032088;28;20453;-70
2022/01/04 09:26:15;;;;;;;2.50;1.70;;;7.90;99.90;;;;;;5031753;28;20418;-70
2022/01/04 09:28:42;;;;;;;6.10;1.73;;;7.90;99.90;;;;;;5030025;28;20446;-70
2022/01/04 09:31:08;;;;;;;4.60;1.20;;;7.90;99.90;;;;;;5031533;28;20845;-70
2022/01/04 09:33:35;;;;;;;2.60;1.10;;;7.90;99.90;;;;;;5031204;28;20422;-70
2022/01/04 09:36:01;;;;;;;1.30;1.00;;;7.80;99.90;;;;;;5022383;28;20422;-70
2022/01/04 09:38:27;;;;;;;1.13;1.00;;;7.90;99.90;;;;;;5029802;28;20457;-70
2022/01/04 09:40:54;;;;;;;2.13;1.03;;;7.90;99.90;;;;;;5031267;28;20414;-70
2022/01/04 09:43:20;;;;;;;1.67;1.13;;;7.80;99.90;;;;;;5031083;28;20208;-70
2022/01/04 09:45:47;;;;;;;1.63;0.90;;;7.80;99.90;;;;;;5030968;28;20414;-70
2022/01/04 09:48:13;;;;;;;1.00;1.00;;;7.80;99.90;;;;;;5031367;28;20470;-70
2022/01/04 09:50:40;;;;;;;2.83;1.30;;;7.70;99.90;;;;;;5031408;28;20476;-70
2022/01/04 09:53:08;;;;;;;1.10;1.00;;;7.70;99.90;;;;;;5031372;28;20184;-71
2022/01/04 09:55:34;;;;;;;1.33;1.00;;;7.70;99.90;;;;;;5031225;28;20447;-70
2022/01/04 09:58:00;;;;;;;3.90;1.23;;;7.60;99.90;;;;;;5031112;28;20455;-70
2022/01/04 10:00:26;;;;;;;1.10;0.93;;;7.60;99.90;;;;;;5031495;28;20429;-70
2022/01/04 10:03:07;;;;;;;1.43;0.90;;;7.60;99.90;;;;;;5031251;28;20462;-70
2022/01/04 10:05:32;;;;;;;0.87;0.83;;;7.60;99.90;;;;;;5031126;28;20426;-70
2022/01/04 10:08:05;;;;;;;1.60;1.30;;;7.60;99.90;;;;;;5026797;28;20930;-70
2022/01/04 10:10:31;;;;;;;2.00;1.87;;;7.60;99.90;;;;;;5027460;28;20182;-70
2022/01/04 10:13:00;;;;;;;1.27;1.07;;;7.60;99.90;;;;;;5031003;28;20428;-70
2022/01/04 10:15:36;;;;;;;1.00;1.00;;;7.60;99.90;;;;;;5030574;28;20421;-71
2022/01/04 10:18:21;;;;;;;1.50;1.40;;;7.60;99.90;;;;;;5032038;28;20468;-76
2022/01/04 10:20:52;;;;;;;1.30;1.20;;;7.60;99.90;;;;;;5033890;28;20471;-71
2022/01/04 10:23:21;;;;;;;1.20;1.10;;;7.60;99.90;;;;;;5035204;28;20484;-69
2022/01/04 10:25:48;;;;;;;1.17;1.07;;;7.60;99.90;;;;;;5034906;28;20506;-70
2022/01/04 10:28:28;;;;;;;2.50;1.00;;;7.60;99.90;;;;;;5034883;28;20517;-69
2022/01/04 10:30:54;;;;;;;1.53;1.17;;;7.70;99.90;;;;;;5035101;28;20471;-69
2022/01/04 10:33:22;;;;;;;1.37;1.27;;;7.70;99.90;;;;;;5034951;28;20417;-69
2022/01/04 10:35:49;;;;;;;2.00;1.73;;;7.70;99.90;;;;;;5034828;28;20214;-69
2022/01/04 10:38:30;;;;;;;1.17;1.07;;;7.70;99.90;;;;;;5034508;28;21261;-69
2022/01/04 10:41:10;;;;;;;2.00;1.10;;;7.60;99.90;;;;;;5034201;28;20424;-69
2022/01/04 10:43:47;;;;;;;2.23;1.20;;;7.70;99.90;;;;;;5034554;28;20493;-68
2022/01/04 10:46:22;;;;;;;2.53;2.00;;;7.70;99.90;;;;;;5034209;28;20787;-69
2022/01/04 10:48:49;;;;;;;4.07;2.20;;;7.70;99.90;;;;;;5034588;28;20438;-69
2022/01/04 10:51:18;;;;;;;1.73;1.20;;;7.60;99.90;;;;;;5034415;28;20491;-69
2022/01/04 10:53:55;;;;;;;1.20;1.10;;;7.60;99.90;;;;;;5033225;28;20414;-69
2022/01/04 10:56:37;;;;;;;4.63;1.73;;;7.60;99.90;;;;;;5029149;28;20785;-69
2022/01/04 10:59:06;;;;;;;1.23;0.90;;;7.60;99.90;;;;;;5034101;28;20434;-69
2022/01/04 11:01:42;;;;;;;1.40;1.30;;;7.60;99.90;;;;;;5032504;28;20458;-69
2022/01/04 11:04:16;;;;;;;2.00;1.10;;;7.60;99.90;;;;;;5031287;28;20442;-69
2022/01/04 11:06:42;;;;;;;1.20;1.10;;;7.60;99.90;;;;;;5031599;28;20419;-68
2022/01/04 11:09:08;;;;;;;0.97;0.97;;;7.50;99.90;;;;;;5032102;28;20458;-68
2022/01/04 11:11:34;;;;;;;1.23;1.10;;;7.60;99.90;;;;;;5033877;28;20418;-68
2022/01/04 11:14:00;;;;;;;1.00;0.80;;;7.50;99.90;;;;;;5021935;28;20441;-68
2022/01/04 11:16:28;;;;;;;1.23;1.13;;;7.40;99.90;;;;;;5023220;28;20455;-70
2022/01/04 11:18:55;;;;;;;1.10;1.00;;;7.50;99.90;;;;;;5032125;28;20461;-71
2022/01/04 11:21:29;;;;;;;2.30;1.83;;;7.50;99.90;;;;;;5027646;28;20798;-69
2022/01/04 11:23:57;;;;;;;5.77;1.67;;;7.40;99.90;;;;;;5032900;28;20426;-69
2022/01/04 11:26:23;;;;;;;1.67;1.57;;;7.40;99.90;;;;;;5037729;28;20908;-69
2022/01/04 11:28:50;;;;;;;2.47;1.47;;;7.40;99.90;;;;;;5033305;28;20517;-70
2022/01/04 11:31:50;;;;;;;2.13;1.90;;;7.40;99.90;;;;;;5033683;28;20183;-72
2022/01/04 11:34:29;;;;;;;2.33;2.13;;;7.40;99.90;;;;;;5030858;28;20446;-69
2022/01/04 11:36:54;;;;;;;1.87;1.77;;;7.40;99.90;;;;;;5033366;28;20782;-70
2022/01/04 11:39:39;;;;;;;1.00;0.90;;;7.30;99.90;;;;;;5032257;28;20477;-69
2022/01/04 11:42:08;;;;;;;1.50;1.40;;;7.40;99.90;;;;;;5026584;28;20253;-69
2022/01/04 11:44:42;;;;;;;3.30;3.00;;;7.40;99.90;;;;;;5033791;28;20423;-69
2022/01/04 11:47:15;;;;;;;1.87;1.30;;;7.40;99.90;;;;;;5034289;28;20605;-69
2022/01/04 11:50:20;;;;;;;3.87;1.60;;;7.40;99.90;;;;;;5031935;28;20523;-72
2022/01/04 11:52:51;;;;;;;2.90;1.77;;;7.40;99.90;;;;;;5029754;28;20430;-69
2022/01/04 11:55:22;;;;;;;1.30;1.00;;;7.40;99.90;;;;;;5033099;28;20422;-70
2022/01/04 11:57:49;;;;;;;1.43;1.33;;;7.50;99.90;;;;;;5031271;28;20925;-69
2022/01/04 12:00:40;;;;;;;1.30;1.20;;;7.50;99.90;;;;;;5033174;28;20415;-69
2022/01/04 12:03:14;;;;;;;1.53;1.40;;;7.50;99.90;;;;;;5031959;28;20470;-69
2022/01/04 12:05:54;;;;;;;2.50;1.40;;;7.40;99.90;;;;;;5032591;28;20418;-69
2022/01/04 12:08:22;;;;;;;1.00;1.00;;;7.50;99.90;;;;;;5028708;28;20435;-69
2022/01/04 12:10:53;;;;;;;1.73;1.50;;;7.50;99.90;;;;;;5032585;28;20936;-68
2022/01/04 12:13:23;;;;;;;1.70;1.60;;;7.50;99.90;;;;;;5016060;28;20517;-70
2022/01/04 12:16:03;;;;;;;1.43;1.03;;;7.60;99.90;;;;;;5032556;28;20764;-69
2022/01/04 12:18:34;;;;;;;1.87;1.23;;;7.50;99.90;;;;;;5032572;28;20484;-70
2022/01/04 12:21:03;;;;;;;1.43;1.00;;;7.60;99.90;;;;;;5032627;28;20815;-69
2022/01/04 12:23:33;;;;;;;2.10;1.80;;;7.50;99.90;;;;;;5032566;28;21132;-69
2022/01/04 12:26:04;;;;;;;1.63;1.27;;;7.60;99.90;;;;;;5032254;28;20503;-70
2022/01/04 12:28:40;;;;;;;1.73;1.40;;;7.50;99.90;;;;;;5032413;28;20430;-70
2022/01/04 12:31:18;;;;;;;3.03;1.10;;;7.60;99.90;;;;;;5032006;28;20418;-70
2022/01/04 12:33:52;;;;;;;1.40;1.20;;;7.50;99.90;;;;;;5032269;28;20409;-70
2022/01/04 12:36:23;;;;;;;1.50;1.10;;;7.50;99.90;;;;;;5026539;28;20441;-70
2022/01/04 12:38:50;;;;;;;1.20;1.10;;;7.50;99.90;;;;;;5031991;28;20462;-70
2022/01/04 12:41:16;;;;;;;2.57;1.90;;;7.50;99.90;;;;;;5031515;28;20949;-68
2022/01/04 12:43:42;;;;;;;1.47;1.20;;;7.50;99.90;;;;;;5031794;28;21047;-69
2022/01/04 12:46:08;;;;;;;1.53;1.30;;;7.50;99.90;;;;;;5031866;28;20501;-69
2022/01/04 12:48:49;;;;;;;2.50;1.40;;;7.50;99.90;;;;;;5032393;28;20248;-69
2022/01/04 12:51:31;;;;;;;1.60;1.40;;;7.60;99.90;;;;;;5032012;28;20414;-69
2022/01/04 12:54:12;;;;;;;1.30;1.17;;;7.60;99.90;;;;;;5032125;28;20477;-69
2022/01/04 12:56:43;;;;;;;1.63;1.33;;;7.60;99.90;;;;;;5032398;28;20877;-69
2022/01/04 12:59:09;;;;;;;3.20;1.77;;;7.60;99.90;;;;;;5032385;28;20444;-69
2022/01/04 13:01:35;;;;;;;1.57;1.30;;;7.50;99.90;;;;;;5033408;28;20545;-69
2022/01/04 13:04:01;;;;;;;2.73;1.97;;;7.50;99.90;;;;;;5034488;28;20446;-71
2022/01/04 13:06:30;;;;;;;2.23;2.00;;;7.60;99.90;;;;;;5037455;28;20426;-69
2022/01/04 13:08:58;;;;;;;1.70;1.30;;;7.60;99.90;;;;;;5030492;28;20430;-70